Time;durP1;ratioP1;P1;durP2;ratioP2;P2;SDS_P1;SDS_P2;PMS_P1;PMS_P2;Temp;Humidity;BMP_temperature;BMP_pressure;BME280_temperature;BME280_humidity;BME280_pressure;Samples;Min_cycle;Max_cycle;Signal;HPM_P1;HPM_P2
2024/04/04 00:02:10;;;;;;;;;;;14.30;99.90;;;;;;5051387;28;19920;-77
2024/04/04 00:04:36;;;;;;;;;;;14.30;99.90;;;;;;5053476;28;19929;-74
2024/04/04 00:07:02;;;;;;;;;;;14.30;99.90;;;;;;5053058;28;19913;-74
2024/04/04 00:09:27;;;;;;;;;;;14.30;99.90;;;;;;5053628;28;19905;-74
2024/04/04 00:11:53;;;;;;;;;;;14.30;99.90;;;;;;5052013;28;19909;-74
2024/04/04 00:14:19;;;;;;;;;;;14.40;99.90;;;;;;5052852;28;19905;-73
2024/04/04 00:16:45;;;;;;;;;;;14.30;99.90;;;;;;5050982;28;20361;-74
2024/04/04 00:19:11;;;;;;;;;;;14.30;99.90;;;;;;5052817;28;20277;-74
2024/04/04 00:21:37;;;;;;;;;;;14.30;99.90;;;;;;5052104;28;19948;-74
2024/04/04 00:24:03;;;;;;;;;;;14.30;99.90;;;;;;5046397;28;20266;-74
2024/04/04 00:26:29;;;;;;;;;;;14.30;99.90;;;;;;5032665;28;19909;-73
2024/04/04 00:28:55;;;;;;;;;;;14.20;99.90;;;;;;5033503;28;19927;-74
2024/04/04 00:31:21;;;;;;;;;;;14.30;99.90;;;;;;5042404;28;19916;-74
2024/04/04 00:33:47;;;;;;;;;;;14.30;99.90;;;;;;5053216;28;19905;-74
2024/04/04 00:36:13;;;;;;;;;;;14.20;99.90;;;;;;5052759;28;19916;-74
2024/04/04 00:38:39;;;;;;;;;;;14.20;99.90;;;;;;5052416;28;19908;-74
2024/04/04 00:41:05;;;;;;;;;;;14.20;99.90;;;;;;5052415;28;19915;-73
2024/04/04 00:43:31;;;;;;;;;;;14.20;99.90;;;;;;5053039;28;19920;-74
2024/04/04 00:45:57;;;;;;;;;;;14.10;99.90;;;;;;5051662;28;20327;-74
2024/04/04 00:48:23;;;;;;;;;;;14.10;99.90;;;;;;5052907;28;19974;-74
2024/04/04 00:50:49;;;;;;;;;;;14.20;99.90;;;;;;5052033;28;20353;-74
2024/04/04 00:53:15;;;;;;;;;;;14.10;99.90;;;;;;5052794;28;19916;-74
2024/04/04 00:55:41;;;;;;;;;;;14.10;99.90;;;;;;5052159;28;19904;-74
2024/04/04 00:58:07;;;;;;;;;;;14.10;99.90;;;;;;5052848;28;19908;-74
2024/04/04 01:00:33;;;;;;;;;;;14.10;99.90;;;;;;5051278;28;19913;-74
2024/04/04 01:02:59;;;;;;;;;;;14.10;99.90;;;;;;5052723;28;19909;-74
2024/04/04 01:05:25;;;;;;;;;;;14.10;99.90;;;;;;5052472;28;19904;-74
2024/04/04 01:07:50;;;;;;;;;;;14.10;99.90;;;;;;5052669;28;19920;-76
2024/04/04 01:10:19;;;;;;;;;;;14.10;99.90;;;;;;5050539;28;19904;-76
2024/04/04 01:12:44;;;;;;;;;;;14.00;99.90;;;;;;5052683;28;20262;-76
2024/04/04 01:15:10;;;;;;;;;;;14.10;99.90;;;;;;5050447;28;19912;-76
2024/04/04 01:17:36;;;;;;;;;;;14.10;99.90;;;;;;5052557;28;19912;-76
2024/04/04 01:20:03;;;;;;;;;;;14.10;99.90;;;;;;5052287;28;19958;-76
2024/04/04 01:22:29;;;;;;;;;;;14.00;99.90;;;;;;5050801;28;19925;-76
2024/04/04 01:24:55;;;;;;;;;;;14.00;99.90;;;;;;5038532;28;19935;-76
2024/04/04 01:27:21;;;;;;;;;;;14.00;99.90;;;;;;5032366;28;19912;-76
2024/04/04 01:29:47;;;;;;;;;;;14.00;99.90;;;;;;5037315;28;19963;-76
2024/04/04 01:32:13;;;;;;;;;;;13.90;99.90;;;;;;5052877;28;19919;-76
2024/04/04 01:34:38;;;;;;;;;;;13.90;99.90;;;;;;5056087;28;19920;-77
2024/04/04 01:37:04;;;;;;;;;;;13.90;99.90;;;;;;5055721;28;19908;-75
2024/04/04 01:39:30;;;;;;;;;;;13.90;99.90;;;;;;5056069;28;20341;-76
2024/04/04 01:41:56;;;;;;;;;;;13.90;99.90;;;;;;5055618;28;20375;-76
2024/04/04 01:44:22;;;;;;;;;;;13.90;99.90;;;;;;5056075;28;19972;-75
2024/04/04 01:46:48;;;;;;;;;;;13.90;99.90;;;;;;5055326;28;19923;-76
2024/04/04 01:49:15;;;;;;;;;;;14.00;99.90;;;;;;5055055;28;19908;-76
2024/04/04 01:51:42;;;;;;;;;;;13.90;99.90;;;;;;5055599;28;20270;-76
2024/04/04 01:54:09;;;;;;;;;;;13.90;99.90;;;;;;5055813;28;20277;-76
2024/04/04 01:56:35;;;;;;;;;;;13.90;99.90;;;;;;5055450;28;19928;-75
2024/04/04 01:59:01;;;;;;;;;;;14.00;99.90;;;;;;5056003;28;19909;-76
2024/04/04 02:01:27;;;;;;;;;;;14.00;99.90;;;;;;5054535;28;19908;-76
2024/04/04 02:03:52;;;;;;;;;;;14.00;99.90;;;;;;5040230;28;19924;-76
2024/04/04 02:06:18;;;;;;;;;;;13.90;99.90;;;;;;5031814;28;19913;-75
2024/04/04 02:08:44;;;;;;;;;;;13.90;99.90;;;;;;5034313;28;19912;-75
2024/04/04 02:11:10;;;;;;;;;;;13.90;99.90;;;;;;5034528;28;20373;-74
2024/04/04 02:13:36;;;;;;;;;;;14.00;99.90;;;;;;5034700;28;19913;-74
2024/04/04 02:16:02;;;;;;;;;;;14.00;99.90;;;;;;5040918;28;19916;-74
2024/04/04 02:18:28;;;;;;;;;;;13.90;99.90;;;;;;5054491;28;19908;-74
2024/04/04 02:20:54;;;;;;;;;;;13.90;99.90;;;;;;5053483;28;20245;-74
2024/04/04 02:23:20;;;;;;;;;;;13.90;99.90;;;;;;5051188;28;19921;-74
2024/04/04 02:25:46;;;;;;;;;;;13.90;99.90;;;;;;5034036;28;19909;-74
2024/04/04 02:28:11;;;;;;;;;;;13.90;99.90;;;;;;5034783;28;19932;-73
2024/04/04 02:30:37;;;;;;;;;;;13.90;99.90;;;;;;5037496;28;19920;-75
2024/04/04 02:33:04;;;;;;;;;;;14.00;99.90;;;;;;5053992;28;19915;-74
2024/04/04 02:35:30;;;;;;;;;;;13.90;99.90;;;;;;5046775;28;19912;-74
2024/04/04 02:37:56;;;;;;;;;;;13.90;99.90;;;;;;5039262;28;20285;-75
2024/04/04 02:40:22;;;;;;;;;;;13.90;99.90;;;;;;5035713;28;19916;-74
2024/04/04 02:42:48;;;;;;;;;;;13.80;99.90;;;;;;5055315;28;19905;-74
2024/04/04 02:45:14;;;;;;;;;;;13.80;99.90;;;;;;5054239;28;19913;-74
2024/04/04 02:47:40;;;;;;;;;;;13.80;99.90;;;;;;5054405;28;20349;-74
2024/04/04 02:50:07;;;;;;;;;;;13.80;99.90;;;;;;5054249;28;19915;-74
2024/04/04 02:52:33;;;;;;;;;;;13.80;99.90;;;;;;5034923;28;19913;-74
2024/04/04 02:55:00;;;;;;;;;;;13.80;99.90;;;;;;5035089;28;19912;-74
2024/04/04 02:57:25;;;;;;;;;;;13.80;99.90;;;;;;5053566;28;19904;-74
2024/04/04 02:59:51;;;;;;;;;;;13.70;99.90;;;;;;5054900;28;20380;-75
2024/04/04 03:02:17;;;;;;;;;;;13.70;99.90;;;;;;5054104;28;19916;-75
2024/04/04 03:04:43;;;;;;;;;;;13.70;99.90;;;;;;5054259;28;19916;-75
2024/04/04 03:07:09;;;;;;;;;;;13.70;99.90;;;;;;5053606;28;19905;-74
2024/04/04 03:09:35;;;;;;;;;;;13.60;99.90;;;;;;5054833;28;19909;-74
2024/04/04 03:12:01;;;;;;;;;;;13.60;99.90;;;;;;5054207;28;19916;-75
2024/04/04 03:14:27;;;;;;;;;;;13.60;99.90;;;;;;5054560;28;19909;-75
2024/04/04 03:16:53;;;;;;;;;;;13.60;99.90;;;;;;5052403;28;19909;-75
2024/04/04 03:19:19;;;;;;;;;;;13.60;99.90;;;;;;5054144;28;19920;-75
2024/04/04 03:21:45;;;;;;;;;;;13.60;99.90;;;;;;5053906;28;19924;-76
2024/04/04 03:24:11;;;;;;;;;;;13.60;99.90;;;;;;5046508;28;20380;-75
2024/04/04 03:26:36;;;;;;;;;;;13.60;99.90;;;;;;5033813;28;19931;-75
2024/04/04 03:29:02;;;;;;;;;;;13.60;99.90;;;;;;5034491;28;20362;-75
2024/04/04 03:31:28;;;;;;;;;;;13.60;99.90;;;;;;5044186;28;19913;-75
2024/04/04 03:33:54;;;;;;;;;;;13.60;99.90;;;;;;5053854;28;19908;-75
2024/04/04 03:36:20;;;;;;;;;;;13.60;99.90;;;;;;5053440;28;20309;-75
2024/04/04 03:38:46;;;;;;;;;;;13.60;99.90;;;;;;5054271;28;19904;-75
2024/04/04 03:41:12;;;;;;;;;;;13.60;99.90;;;;;;5052312;28;19913;-75
2024/04/04 03:43:38;;;;;;;;;;;13.60;99.90;;;;;;5053384;28;20285;-75
2024/04/04 03:46:04;;;;;;;;;;;13.60;99.90;;;;;;5052888;28;19916;-75
2024/04/04 03:48:30;;;;;;;;;;;13.70;99.90;;;;;;5053635;28;19905;-75
2024/04/04 03:50:56;;;;;;;;;;;13.70;99.90;;;;;;5052014;28;19916;-75
2024/04/04 03:53:22;;;;;;;;;;;13.70;99.90;;;;;;5053865;28;19909;-75
2024/04/04 03:55:48;;;;;;;;;;;13.70;99.90;;;;;;5053158;28;19909;-75
2024/04/04 03:58:15;;;;;;;;;;;13.70;99.90;;;;;;5053720;28;19905;-75
2024/04/04 04:00:42;;;;;;;;;;;13.70;99.90;;;;;;5052750;28;20380;-75
2024/04/04 04:03:07;;;;;;;;;;;13.70;99.90;;;;;;5053168;28;20361;-75
2024/04/04 04:05:33;;;;;;;;;;;13.70;99.90;;;;;;5051815;28;19924;-75
2024/04/04 04:07:59;;;;;;;;;;;13.70;99.90;;;;;;5053456;28;19912;-75
2024/04/04 04:10:29;;;;;;;;;;;13.70;99.90;;;;;;5053140;28;19904;-74
2024/04/04 04:12:55;;;;;;;;;;;13.70;99.90;;;;;;5053612;28;20403;-76
2024/04/04 04:15:21;;;;;;;;;;;13.80;99.90;;;;;;5052605;28;19924;-74
2024/04/04 04:17:47;;;;;;;;;;;13.80;99.90;;;;;;5053090;28;19908;-76
2024/04/04 04:22:58;;;;;;;;;;;13.80;99.90;;;;;;5054847;28;19923;-74
2024/04/04 04:25:24;;;;;;;;;;;13.80;99.90;;;;;;5034972;28;20289;-74
2024/04/04 04:27:51;;;;;;;;;;;13.70;99.90;;;;;;5033347;28;19905;-75
2024/04/04 04:30:16;;;;;;;;;;;13.70;99.90;;;;;;5034284;28;19912;-74
2024/04/04 04:32:42;;;;;;;;;;;13.70;99.90;;;;;;5052770;28;19908;-74
2024/04/04 04:35:08;;;;;;;;;;;13.70;99.90;;;;;;5052223;28;20357;-75
2024/04/04 04:37:34;;;;;;;;;;;13.60;99.90;;;;;;5032933;28;19916;-74
2024/04/04 04:40:01;;;;;;;;;;;13.70;99.90;;;;;;5033237;28;19905;-74
2024/04/04 04:42:26;;;;;;;;;;;13.70;99.90;;;;;;5051507;28;19908;-75
2024/04/04 04:44:53;;;;;;;;;;;13.60;99.90;;;;;;5053125;28;19924;-74
2024/04/04 04:47:19;;;;;;;;;;;13.60;99.90;;;;;;5051599;28;19917;-74
2024/04/04 04:49:45;;;;;;;;;;;13.60;99.90;;;;;;5052887;28;19912;-74
2024/04/04 04:52:11;;;;;;;;;;;13.70;99.90;;;;;;5052546;28;19909;-74
2024/04/04 04:54:37;;;;;;;;;;;13.60;99.90;;;;;;5052962;28;19905;-74
2024/04/04 04:57:03;;;;;;;;;;;13.70;99.90;;;;;;5052369;28;19912;-74
2024/04/04 04:59:28;;;;;;;;;;;13.70;99.90;;;;;;5052835;28;19913;-74
2024/04/04 05:01:54;;;;;;;;;;;13.70;99.90;;;;;;5051297;28;19913;-75
2024/04/04 05:04:20;;;;;;;;;;;13.70;99.90;;;;;;5052328;28;19913;-74
2024/04/04 05:06:47;;;;;;;;;;;13.70;99.90;;;;;;5052196;28;20364;-74
2024/04/04 05:09:13;;;;;;;;;;;13.70;99.90;;;;;;5052338;28;19915;-74
2024/04/04 05:11:39;;;;;;;;;;;13.70;99.90;;;;;;5051766;28;19909;-75
2024/04/04 05:14:05;;;;;;;;;;;13.70;99.90;;;;;;5052745;28;19911;-74
2024/04/04 05:16:31;;;;;;;;;;;13.70;99.90;;;;;;5051588;28;19920;-75
2024/04/04 05:18:58;;;;;;;;;;;13.70;99.90;;;;;;5052315;28;19908;-75
2024/04/04 05:21:24;;;;;;;;;;;13.70;99.90;;;;;;5052000;28;19991;-75
2024/04/04 05:23:50;;;;;;;;;;;13.70;99.90;;;;;;5045938;28;20369;-75
2024/04/04 05:26:16;;;;;;;;;;;13.70;99.90;;;;;;5032231;28;19916;-75
2024/04/04 05:28:42;;;;;;;;;;;13.70;99.90;;;;;;5032652;28;19916;-75
2024/04/04 05:31:08;;;;;;;;;;;13.70;99.90;;;;;;5037784;28;20308;-75
2024/04/04 05:33:34;;;;;;;;;;;13.70;99.90;;;;;;5052481;28;19951;-75
2024/04/04 05:36:00;;;;;;;;;;;13.70;99.90;;;;;;5051540;28;19908;-75
2024/04/04 05:38:26;;;;;;;;;;;13.70;99.90;;;;;;5052563;28;19905;-75
2024/04/04 05:40:52;;;;;;;;;;;13.70;99.90;;;;;;5051997;28;19912;-75
2024/04/04 05:43:18;;;;;;;;;;;13.70;99.90;;;;;;5052313;28;19905;-75
2024/04/04 05:45:44;;;;;;;;;;;13.70;99.90;;;;;;5050924;28;19928;-75
2024/04/04 05:48:10;;;;;;;;;;;13.70;99.90;;;;;;5052304;28;20354;-75
2024/04/04 05:50:36;;;;;;;;;;;13.70;99.90;;;;;;5051668;28;19921;-75
2024/04/04 05:53:02;;;;;;;;;;;13.70;99.90;;;;;;5052178;28;19913;-75
2024/04/04 05:55:29;;;;;;;;;;;13.70;99.90;;;;;;5051831;28;19911;-75
2024/04/04 05:57:55;;;;;;;;;;;13.70;99.90;;;;;;5052291;28;20254;-76
2024/04/04 06:00:21;;;;;;;;;;;13.80;99.90;;;;;;5050891;28;19928;-75
2024/04/04 06:02:50;;;;;;;;;;;13.80;99.90;;;;;;5052069;28;19908;-75
2024/04/04 06:05:16;;;;;;;;;;;13.80;99.90;;;;;;5051551;28;19919;-75
2024/04/04 06:07:42;;;;;;;;;;;13.80;99.90;;;;;;5051999;28;19912;-75
2024/04/04 06:10:08;;;;;;;;;;;13.80;99.90;;;;;;5052093;28;20273;-75
2024/04/04 06:12:33;;;;;;;;;;;13.80;99.90;;;;;;5051472;28;19905;-75
2024/04/04 06:14:59;;;;;;;;;;;13.70;99.90;;;;;;5054565;28;19909;-75
2024/04/04 06:17:25;;;;;;;;;;;13.80;99.90;;;;;;5054655;28;19913;-75
2024/04/04 06:19:51;;;;;;;;;;;13.80;99.90;;;;;;5054480;28;19909;-75
2024/04/04 06:22:17;;;;;;;;;;;13.80;99.90;;;;;;5054422;28;19947;-75
2024/04/04 06:24:44;;;;;;;;;;;13.80;99.90;;;;;;5043326;28;19917;-75
2024/04/04 06:27:10;;;;;;;;;;;13.90;99.90;;;;;;5034845;28;20309;-74
2024/04/04 06:29:36;;;;;;;;;;;13.90;99.90;;;;;;5035583;28;19916;-74
2024/04/04 06:32:04;;;;;;;;;;;13.90;99.90;;;;;;5050052;28;19916;-74
2024/04/04 06:34:30;;;;;;;;;;;13.90;99.90;;;;;;5054831;28;19912;-74
2024/04/04 06:36:56;;;;;;;;;;;13.90;99.90;;;;;;5055005;28;19939;-74
2024/04/04 06:39:22;;;;;;;;;;;13.90;99.90;;;;;;5054861;28;20361;-74
2024/04/04 06:41:48;;;;;;;;;;;13.90;99.90;;;;;;5054869;28;19908;-75
2024/04/04 06:44:14;;;;;;;;;;;14.00;99.90;;;;;;5054177;28;20270;-74
2024/04/04 06:46:40;;;;;;;;;;;14.00;99.90;;;;;;5053699;28;19959;-75
2024/04/04 06:49:06;;;;;;;;;;;14.00;99.90;;;;;;5054311;28;20381;-74
2024/04/04 06:51:32;;;;;;;;;;;14.00;99.90;;;;;;5054381;28;19909;-74
2024/04/04 06:53:58;;;;;;;;;;;14.00;99.90;;;;;;5054884;28;20293;-74
2024/04/04 06:56:24;;;;;;;;;;;14.10;99.90;;;;;;5054652;28;19905;-75
2024/04/04 06:58:50;;;;;;;;;;;14.00;99.90;;;;;;5053571;28;19944;-74
2024/04/04 07:01:16;;;;;;;;;;;14.10;99.90;;;;;;5054119;28;19916;-74
2024/04/04 07:03:42;;;;;;;;;;;14.10;99.90;;;;;;5054159;28;20004;-74
2024/04/04 07:06:07;;;;;;;;;;;14.00;99.90;;;;;;5054327;28;19913;-75
2024/04/04 07:08:35;;;;;;;;;;;14.10;99.90;;;;;;5054872;28;20357;-74
2024/04/04 07:11:02;;;;;;;;;;;14.10;99.90;;;;;;5054232;28;19904;-74
2024/04/04 07:13:28;;;;;;;;;;;14.10;99.90;;;;;;5054606;28;20281;-74
2024/04/04 07:16:01;;;;;;;;;;;14.10;99.90;;;;;;5053452;28;19909;-75
2024/04/04 07:18:28;;;;;;;;;;;14.20;99.90;;;;;;5054608;28;19931;-74
2024/04/04 07:20:54;;;;;;;;;;;14.40;99.90;;;;;;5054189;28;19904;-75
2024/04/04 07:23:20;;;;;;;;;;;14.50;99.90;;;;;;5052915;28;19928;-74
2024/04/04 07:25:49;;;;;;;;;;;14.60;99.90;;;;;;5033106;28;19917;-74
2024/04/04 07:28:15;;;;;;;;;;;14.80;99.90;;;;;;5034965;28;20394;-75
2024/04/04 07:30:41;;;;;;;;;;;15.00;99.90;;;;;;5036318;28;19975;-75
2024/04/04 07:33:07;;;;;;;;;;;15.10;99.90;;;;;;5054343;28;19912;-75
2024/04/04 07:35:33;;;;;;;;;;;15.20;99.90;;;;;;5046039;28;19939;-76
2024/04/04 07:37:58;;;;;;;;;;;15.30;99.90;;;;;;5053985;28;19915;-75
2024/04/04 07:40:24;;;;;;;;;;;15.20;99.90;;;;;;5053376;28;19912;-75
2024/04/04 07:42:53;;;;;;;;;;;15.30;99.90;;;;;;5054183;28;19927;-76
2024/04/04 07:45:19;;;;;;;;;;;15.30;99.90;;;;;;5051733;28;20398;-75
2024/04/04 07:47:45;;;;;;;;;;;15.30;99.90;;;;;;5053731;28;19912;-75
2024/04/04 07:50:14;;;;;;;;;;;15.40;99.90;;;;;;5053772;28;19905;-75
2024/04/04 07:52:40;;;;;;;;;;;15.50;99.90;;;;;;5033975;28;19905;-75
2024/04/04 07:55:06;;;;;;;;;;;15.50;99.90;;;;;;5033665;28;20253;-76
2024/04/04 07:57:32;;;;;;;;;;;15.40;99.90;;;;;;5052962;28;19916;-75
2024/04/04 07:59:58;;;;;;;;;;;15.40;99.90;;;;;;5053796;28;19909;-76
2024/04/04 08:02:26;;;;;;;;;;;15.40;99.90;;;;;;5052695;28;20312;-75
2024/04/04 08:04:52;;;;;;;;;;;15.50;99.90;;;;;;5053519;28;19939;-76
2024/04/04 08:07:18;;;;;;;;;;;15.50;99.90;;;;;;5052948;28;19912;-75
2024/04/04 08:09:44;;;;;;;;;;;15.50;99.90;;;;;;5053301;28;20332;-75
2024/04/04 08:12:10;;;;;;;;;;;15.50;99.90;;;;;;5052952;28;19904;-75
2024/04/04 08:14:36;;;;;;;;;;;15.60;99.90;;;;;;5053504;28;19909;-76
2024/04/04 08:17:02;;;;;;;;;;;15.70;99.90;;;;;;5052401;28;20227;-75
2024/04/04 08:19:28;;;;;;;;;;;15.80;99.90;;;;;;5053453;28;19967;-75
2024/04/04 08:21:54;;;;;;;;;;;15.80;99.90;;;;;;5052539;28;19920;-76
2024/04/04 08:24:20;;;;;;;;;;;15.80;99.90;;;;;;5043989;28;19912;-75
2024/04/04 08:26:46;;;;;;;;;;;15.80;99.90;;;;;;5031461;28;20412;-75
2024/04/04 08:29:13;;;;;;;;;;;15.80;99.90;;;;;;5033346;28;19905;-74
2024/04/04 08:31:39;;;;;;;;;;;15.80;99.90;;;;;;5044981;28;19920;-74
2024/04/04 08:34:05;;;;;;;;;;;15.70;99.90;;;;;;5053369;28;19908;-75
2024/04/04 08:36:31;;;;;;;;;;;15.70;99.90;;;;;;5052013;28;20345;-75
2024/04/04 08:38:57;;;;;;;;;;;15.70;99.90;;;;;;5052281;28;19940;-75
2024/04/04 08:41:23;;;;;;;;;;;15.70;99.90;;;;;;5052217;28;19905;-75
2024/04/04 08:43:50;;;;;;;;;;;15.70;99.90;;;;;;5052356;28;19916;-75
2024/04/04 08:46:16;;;;;;;;;;;15.70;99.90;;;;;;5050667;28;19917;-75
2024/04/04 08:48:42;;;;;;;;;;;15.70;99.90;;;;;;5051962;28;19938;-74
2024/04/04 08:51:09;;;;;;;;;;;15.80;99.90;;;;;;5052706;28;19912;-75
2024/04/04 08:53:36;;;;;;;;;;;15.80;99.90;;;;;;5051638;28;19916;-75
2024/04/04 08:56:04;;;;;;;;;;;15.80;99.90;;;;;;5051680;28;19915;-75
2024/04/04 08:58:30;;;;;;;;;;;15.80;99.90;;;;;;5050818;28;19904;-75
2024/04/04 09:00:56;;;;;;;;;;;15.80;99.90;;;;;;5051433;28;19936;-74
2024/04/04 09:03:22;;;;;;;;;;;15.80;99.90;;;;;;5052928;28;19912;-74
2024/04/04 09:05:48;;;;;;;;;;;16.00;99.90;;;;;;5051779;28;19924;-75
2024/04/04 09:08:14;;;;;;;;;;;16.20;99.90;;;;;;5052494;28;19912;-75
2024/04/04 09:10:40;;;;;;;;;;;16.40;99.90;;;;;;5052285;28;19908;-75
2024/04/04 09:13:07;;;;;;;;;;;16.70;99.90;;;;;;5052773;28;20277;-75
2024/04/04 09:15:33;;;;;;;;;;;16.80;99.90;;;;;;5051250;28;19917;-75
2024/04/04 09:18:04;;;;;;;;;;;16.90;99.90;;;;;;5052764;28;19915;-75
2024/04/04 09:20:32;;;;;;;;;;;17.00;99.90;;;;;;5052015;28;19904;-75
2024/04/04 09:22:59;;;;;;;;;;;17.00;99.90;;;;;;5051568;28;19939;-75
2024/04/04 09:25:25;;;;;;;;;;;17.10;99.90;;;;;;5033547;28;20293;-75
2024/04/04 09:27:51;;;;;;;;;;;17.10;99.90;;;;;;5032858;28;20270;-74
2024/04/04 09:30:17;;;;;;;;;;;17.30;99.90;;;;;;5032742;28;20289;-75
2024/04/04 09:32:44;;;;;;;;;;;17.50;99.90;;;;;;5052524;28;20300;-77
2024/04/04 09:35:09;;;;;;;;;;;17.60;99.90;;;;;;5051708;28;20361;-77
2024/04/04 09:37:35;;;;;;;;;;;17.70;99.90;;;;;;5031309;28;19916;-76
2024/04/04 09:40:02;;;;;;;;;;;17.80;99.90;;;;;;5030952;28;19916;-77
2024/04/04 09:42:28;;;;;;;;;;;17.80;99.90;;;;;;5062589;28;19905;-76
2024/04/04 09:44:54;;;;;;;;;;;17.70;99.90;;;;;;5032448;28;19912;-76
2024/04/04 09:47:20;;;;;;;;;;;17.60;99.90;;;;;;5048798;28;20292;-76
2024/04/04 09:49:46;;;;;;;;;;;17.50;99.90;;;;;;5054507;28;20001;-76
2024/04/04 09:52:12;;;;;;;;;;;17.40;99.90;;;;;;5055473;28;19904;-77
2024/04/04 09:54:38;;;;;;;;;;;17.20;99.90;;;;;;5054782;28;19908;-76
2024/04/04 09:57:04;;;;;;;;;;;17.10;99.90;;;;;;5055585;28;20444;-76
2024/04/04 09:59:30;;;;;;;;;;;17.10;99.90;;;;;;5055035;28;19905;-77
2024/04/04 10:02:03;;;;;;;;;;;17.10;99.90;;;;;;5055031;28;20327;-77
2024/04/04 10:04:32;;;;;;;;;;;17.10;99.90;;;;;;5056036;28;19905;-77
2024/04/04 10:06:58;;;;;;;;;;;17.10;99.90;;;;;;5053765;28;19927;-77
2024/04/04 10:09:25;;;;;;;;;;;17.10;99.90;;;;;;5055935;28;19904;-76
2024/04/04 10:11:51;;;;;;;;;;;17.20;99.90;;;;;;5055058;28;19916;-76
2024/04/04 10:14:19;;;;;;;;;;;17.30;99.90;;;;;;5055807;28;19912;-77
2024/04/04 10:16:50;;;;;;;;;;;17.30;99.90;;;;;;5054727;28;19920;-77
2024/04/04 10:19:17;;;;;;;;;;;17.30;99.90;;;;;;5055608;28;19904;-77
2024/04/04 10:21:44;;;;;;;;;;;17.30;99.90;;;;;;5054762;28;19920;-76
2024/04/04 10:24:13;;;;;;;;;;;17.20;99.90;;;;;;5047870;28;19916;-77
2024/04/04 10:26:39;;;;;;;;;;;17.20;99.90;;;;;;5046005;28;19927;-76
2024/04/04 10:29:11;;;;;;;;;;;17.20;99.90;;;;;;5055693;28;20335;-77
2024/04/04 10:31:37;;;;;;;;;;;17.20;99.90;;;;;;5053276;28;19913;-77
2024/04/04 10:34:09;;;;;;;;;;;17.20;99.90;;;;;;5055211;28;19909;-77
2024/04/04 10:36:38;;;;;;;;;;;17.30;99.90;;;;;;5052843;28;19932;-76
2024/04/04 10:39:05;;;;;;;;;;;17.50;99.90;;;;;;5055177;28;19905;-77
2024/04/04 10:41:31;;;;;;;;;;;17.80;99.90;;;;;;5054996;28;19909;-77
2024/04/04 10:43:57;;;;;;;;;;;17.90;99.90;;;;;;5055085;28;19927;-76
2024/04/04 10:46:23;;;;;;;;;;;17.90;99.90;;;;;;5054042;28;19928;-76
2024/04/04 10:48:49;;;;;;;;;;;17.90;99.90;;;;;;5054648;28;19912;-76
2024/04/04 10:51:14;;;;;;;;;;;17.90;99.90;;;;;;5053508;28;19910;-76
2024/04/04 10:53:40;;;;;;;;;;;18.00;99.90;;;;;;5055031;28;20361;-76
2024/04/04 10:56:06;;;;;;;;;;;18.10;99.90;;;;;;5054525;28;19909;-77
2024/04/04 10:58:32;;;;;;;;;;;18.20;99.90;;;;;;5053551;28;20003;-77
2024/04/04 11:00:58;;;;;;;;;;;18.30;99.90;;;;;;5053098;28;20388;-77
2024/04/04 11:03:24;;;;;;;;;;;18.30;99.90;;;;;;5053149;28;19915;-76
2024/04/04 11:05:50;;;;;;;;;;;18.30;99.90;;;;;;5053073;28;19923;-74
2024/04/04 11:08:16;;;;;;;;;;;18.30;99.90;;;;;;5054930;28;19916;-75
2024/04/04 11:10:43;;;;;;;;;;;18.40;99.90;;;;;;5054425;28;20373;-75
2024/04/04 11:13:10;;;;;;;;;;;18.40;99.90;;;;;;5053976;28;19909;-75
2024/04/04 11:15:36;;;;;;;;;;;18.30;99.90;;;;;;5052947;28;19909;-75
2024/04/04 11:18:03;;;;;;;;;;;18.20;99.90;;;;;;5054338;28;19972;-75
2024/04/04 11:20:28;;;;;;;;;;;18.10;99.90;;;;;;5053224;28;20384;-75
2024/04/04 11:22:55;;;;;;;;;;;18.10;99.90;;;;;;5054691;28;19917;-75
2024/04/04 11:25:21;;;;;;;;;;;18.10;99.90;;;;;;5036104;28;20370;-74
2024/04/04 11:27:47;;;;;;;;;;;18.00;99.90;;;;;;5034642;28;19905;-74
2024/04/04 11:30:14;;;;;;;;;;;17.90;99.90;;;;;;5033999;28;19905;-75
2024/04/04 11:32:40;;;;;;;;;;;17.80;99.90;;;;;;5053629;28;19905;-74
2024/04/04 11:35:08;;;;;;;;;;;17.70;99.90;;;;;;5054177;28;19916;-75
2024/04/04 11:37:34;;;;;;;;;;;17.60;99.90;;;;;;5054244;28;19913;-74
2024/04/04 11:40:00;;;;;;;;;;;17.60;99.90;;;;;;5053804;28;19912;-75
2024/04/04 11:42:26;;;;;;;;;;;17.60;99.90;;;;;;5053747;28;19916;-75
2024/04/04 11:44:52;;;;;;;;;;;17.70;99.90;;;;;;5053463;28;19938;-74
2024/04/04 11:47:18;;;;;;;;;;;17.70;99.90;;;;;;5052811;28;19921;-75
2024/04/04 11:49:45;;;;;;;;;;;17.70;99.90;;;;;;5054130;28;20415;-75
2024/04/04 11:52:11;;;;;;;;;;;17.70;99.90;;;;;;5052926;28;19909;-75
2024/04/04 11:54:37;;;;;;;;;;;17.60;99.90;;;;;;5053941;28;19912;-75
2024/04/04 11:57:03;;;;;;;;;;;17.60;99.90;;;;;;5052192;28;20277;-74
2024/04/04 11:59:29;;;;;;;;;;;17.60;99.90;;;;;;5054136;28;19958;-74
2024/04/04 12:01:55;;;;;;;;;;;17.50;99.90;;;;;;5052556;28;19908;-74
2024/04/04 12:04:25;;;;;;;;;;;17.60;99.90;;;;;;5053522;28;20000;-74
2024/04/04 12:06:51;;;;;;;;;;;17.70;99.90;;;;;;5052708;28;19934;-74
2024/04/04 12:09:17;;;;;;;;;;;17.70;99.90;;;;;;5051438;28;20294;-76
2024/04/04 12:11:43;;;;;;;;;;;17.80;99.90;;;;;;5051790;28;19913;-75
2024/04/04 12:14:09;;;;;;;;;;;17.80;99.90;;;;;;5053557;28;19909;-76
2024/04/04 12:16:35;;;;;;;;;;;17.90;99.90;;;;;;5049986;28;20327;-76
2024/04/04 12:21:45;;;;;;;;;;;17.90;99.90;;;;;;5057850;28;19924;-75
2024/04/04 12:24:14;;;;;;;;;;;17.90;99.90;;;;;;5045514;28;20285;-76
2024/04/04 12:26:40;;;;;;;;;;;17.80;99.90;;;;;;5032714;28;19916;-76
2024/04/04 12:29:06;;;;;;;;;;;17.90;99.90;;;;;;5032193;28;19912;-77
2024/04/04 12:31:32;;;;;;;;;;;18.00;99.90;;;;;;5043491;28;19920;-77
2024/04/04 12:33:58;;;;;;;;;;;18.00;99.90;;;;;;5053225;28;19905;-77
2024/04/04 12:36:24;;;;;;;;;;;18.10;99.90;;;;;;5045175;28;19909;-76
2024/04/04 12:38:50;;;;;;;;;;;18.20;99.90;;;;;;5052841;28;19905;-76
2024/04/04 12:41:16;;;;;;;;;;;18.30;99.90;;;;;;5051441;28;19909;-76
2024/04/04 12:43:44;;;;;;;;;;;18.30;99.90;;;;;;5051545;28;19912;-75
2024/04/04 12:46:10;;;;;;;;;;;18.30;99.90;;;;;;5051797;28;20544;-76
2024/04/04 12:48:36;;;;;;;;;;;18.30;99.90;;;;;;5052864;28;19912;-76
2024/04/04 12:51:02;;;;;;;;;;;18.40;99.90;;;;;;5052438;28;19916;-76
2024/04/04 12:53:28;;;;;;;;;;;18.40;99.90;;;;;;5052833;28;20265;-76
2024/04/04 12:55:54;;;;;;;;;;;18.40;99.90;;;;;;5052272;28;19920;-76
2024/04/04 12:58:20;;;;;;;;;;;18.50;99.90;;;;;;5052806;28;19904;-76
2024/04/04 13:00:46;;;;;;;;;;;18.50;99.90;;;;;;5051691;28;19917;-76
2024/04/04 13:03:12;;;;;;;;;;;18.60;99.90;;;;;;5052549;28;19920;-77
2024/04/04 13:05:38;;;;;;;;;;;18.60;99.90;;;;;;5052250;28;19927;-76
2024/04/04 13:08:04;;;;;;;;;;;18.70;99.90;;;;;;5052611;28;19915;-77
2024/04/04 13:10:30;;;;;;;;;;;18.70;99.90;;;;;;5052320;28;19916;-74
2024/04/04 13:12:56;;;;;;;;;;;18.70;99.90;;;;;;5052795;28;20285;-74
2024/04/04 13:15:22;;;;;;;;;;;18.70;99.90;;;;;;5051255;28;19921;-74
2024/04/04 13:17:48;;;;;;;;;;;18.70;99.90;;;;;;5052687;28;19912;-74
2024/04/04 13:20:14;;;;;;;;;;;18.80;99.90;;;;;;5052277;28;20261;-75
2024/04/04 13:22:40;;;;;;;;;;;18.80;99.90;;;;;;5051932;28;19920;-74
2024/04/04 13:25:06;;;;;;;;;;;18.80;99.90;;;;;;5040331;28;19951;-74
2024/04/04 13:27:34;;;;;;;;;;;18.90;99.90;;;;;;5051484;28;19928;-74
2024/04/04 13:30:00;;;;;;;;;;;18.80;99.90;;;;;;5036942;28;19909;-74
2024/04/04 13:32:26;;;;;;;;;;;18.90;99.90;;;;;;5054697;28;19920;-75
2024/04/04 13:34:52;;;;;;;;;;;19.10;99.90;;;;;;5056172;28;20272;-74
2024/04/04 13:37:18;;;;;;;;;;;19.30;99.90;;;;;;5055936;28;19917;-74
2024/04/04 13:39:45;;;;;;;;;;;19.30;99.90;;;;;;5055445;28;19920;-74
2024/04/04 13:42:11;;;;;;;;;;;19.30;99.90;;;;;;5055488;28;20268;-74
2024/04/04 13:44:37;;;;;;;;;;;19.30;99.90;;;;;;5055322;28;19905;-75
2024/04/04 13:47:03;;;;;;;;;;;19.20;99.90;;;;;;5055572;28;20011;-74
2024/04/04 13:49:29;;;;;;;;;;;19.10;99.90;;;;;;5056325;28;19916;-74
2024/04/04 13:51:59;;;;;;;;;;;19.00;99.90;;;;;;5055730;28;19913;-74
2024/04/04 13:54:25;;;;;;;;;;;18.90;99.90;;;;;;5055663;28;20280;-74
2024/04/04 13:56:54;;;;;;;;;;;18.80;99.90;;;;;;5055698;28;20280;-74
2024/04/04 13:59:21;;;;;;;;;;;18.80;99.90;;;;;;5055890;28;20349;-75
2024/04/04 14:01:47;;;;;;;;;;;18.90;99.90;;;;;;5054471;28;20301;-74
2024/04/04 14:04:13;;;;;;;;;;;18.80;99.90;;;;;;5055674;28;19912;-74
2024/04/04 14:06:39;;;;;;;;;;;18.80;99.90;;;;;;5055439;28;19916;-75
2024/04/04 14:09:07;;;;;;;;;;;18.70;99.90;;;;;;5056104;28;20281;-74
2024/04/04 14:11:33;;;;;;;;;;;18.70;99.90;;;;;;5054782;28;19912;-74
2024/04/04 14:13:59;;;;;;;;;;;18.70;99.90;;;;;;5062148;28;19917;-76
2024/04/04 14:16:25;;;;;;;;;;;18.70;99.90;;;;;;5053640;28;19951;-76